Time;durP1;ratioP1;P1;durP2;ratioP2;P2;SDS_P1;SDS_P2;PMS_P1;PMS_P2;Temp;Humidity;BMP_temperature;BMP_pressure;BME280_temperature;BME280_humidity;BME280_pressure;Samples;Min_cycle;Max_cycle;Signal;HPM_P1;HPM_P2
2022/10/12 00:01:09;;;;;;;1.88;0.60;;;;;;;25.44;37.86;102031.69;4996626;28;20027;-55
2022/10/12 00:03:38;;;;;;;1.85;0.50;;;;;;;25.45;37.84;102038.72;4975830;28;20394;-53
2022/10/12 00:06:12;;;;;;;2.28;0.63;;;;;;;25.45;37.95;102042.22;4977493;28;20102;-55
2022/10/12 00:08:42;;;;;;;1.10;0.57;;;;;;;25.48;37.69;102051.91;4977449;28;20062;-55
2022/10/12 00:11:14;;;;;;;1.30;0.70;;;;;;;25.46;37.82;102049.25;4977520;28;20031;-53
2022/10/12 00:13:42;;;;;;;1.25;0.52;;;;;;;25.45;37.65;102055.34;4977184;28;20078;-54
2022/10/12 00:16:12;;;;;;;3.67;0.90;;;;;;;25.42;37.80;102047.38;4977094;28;20023;-54
2022/10/12 00:18:41;;;;;;;1.30;0.65;;;;;;;25.44;37.54;102057.94;4977312;28;20396;-54
2022/10/12 00:21:13;;;;;;;3.38;0.68;;;;;;;25.42;37.80;102062.28;4977128;28;20117;-54
2022/10/12 00:23:43;;;;;;;1.23;0.63;;;;;;;25.47;37.73;102048.38;4975744;28;20026;-54
2022/10/12 00:26:14;;;;;;;2.63;0.55;;;;;;;25.48;37.73;102051.91;4977001;28;20030;-54
2022/10/12 00:28:43;;;;;;;1.52;0.50;;;;;;;25.38;37.68;102031.47;4976782;28;20033;-55
2022/10/12 00:31:14;;;;;;;1.00;0.90;;;;;;;25.44;37.86;102055.31;4976605;28;20086;-52
2022/10/12 00:33:42;;;;;;;2.63;0.77;;;;;;;25.40;37.77;102046.41;4976186;28;20065;-53
2022/10/12 00:36:21;;;;;;;2.88;0.60;;;;;;;25.36;37.74;102062.06;4976937;28;20030;-52
2022/10/12 00:38:50;;;;;;;1.08;0.60;;;;;;;25.40;37.60;102048.16;4976900;28;20113;-53
2022/10/12 00:41:22;;;;;;;3.97;0.60;;;;;;;25.38;37.75;102056.03;4976632;28;20035;-52
2022/10/12 00:43:51;;;;;;;0.98;0.50;;;;;;;25.42;37.64;102060.50;4976772;28;20069;-53
2022/10/12 00:46:24;;;;;;;2.97;0.88;;;;;;;25.40;37.87;102070.06;4976506;28;20027;-53
2022/10/12 00:48:57;;;;;;;1.33;0.70;;;;;;;25.40;37.67;102071.81;4976530;28;20058;-52
2022/10/12 00:51:26;;;;;;;1.20;0.60;;;;;;;25.47;37.37;102066.78;4976430;28;20054;-55
2022/10/12 00:54:00;;;;;;;4.50;0.90;;;;;;;25.37;37.82;102063.84;4976482;28;20038;-52
2022/10/12 00:56:30;;;;;;;1.35;0.38;;;;;;;25.38;37.71;102066.53;4975065;28;20031;-52
2022/10/12 00:59:02;;;;;;;0.95;0.70;;;;;;;25.37;37.70;102066.47;4974411;28;20392;-55
2022/10/12 01:01:31;;;;;;;2.72;0.60;;;;;;;25.38;37.51;102056.03;4976283;28;20034;-55
2022/10/12 01:04:00;;;;;;;2.17;0.80;;;;;;;25.43;37.52;102064.06;4974705;28;20202;-54
2022/10/12 01:06:29;;;;;;;1.70;0.88;;;;;;;25.47;37.53;102055.41;4974941;28;20031;-55
2022/10/12 01:08:58;;;;;;;1.55;0.70;;;;;;;25.41;37.46;102049.94;4975865;28;20403;-53
2022/10/12 01:11:26;;;;;;;5.18;0.70;;;;;;;25.39;37.38;102020.13;4976056;28;20503;-54
2022/10/12 01:13:55;;;;;;;2.05;0.68;;;;;;;25.33;37.43;102010.38;4975979;28;20070;-55
2022/10/12 01:16:45;;;;;;;2.90;0.98;;;;;;;25.31;37.57;102023.47;4975880;28;20408;-53
2022/10/12 01:19:41;;;;;;;3.70;0.73;;;;;;;25.30;37.79;102026.94;4974780;28;20106;-54
2022/10/12 01:22:13;;;;;;;3.65;0.70;;;;;;;25.34;37.48;102014.78;4973347;28;20035;-53
2022/10/12 01:24:51;;;;;;;1.48;0.60;;;;;;;25.38;37.35;102027.13;4975746;28;20038;-54
2022/10/12 01:27:36;;;;;;;0.73;0.50;;;;;;;25.36;37.68;102018.31;4974448;28;20034;-53
2022/10/12 01:30:10;;;;;;;1.10;0.77;;;;;;;25.40;37.45;102017.53;4974560;28;20469;-54
2022/10/12 01:32:46;;;;;;;2.67;1.00;;;;;;;25.31;37.66;102005.09;4975630;28;20381;-54
2022/10/12 01:35:25;;;;;;;1.63;0.77;;;;;;;25.31;37.78;102004.19;4975712;28;20022;-54
2022/10/12 01:38:17;;;;;;;1.08;0.70;;;;;;;25.37;37.54;102006.97;4975613;28;20022;-55
2022/10/12 01:41:11;;;;;;;1.67;0.63;;;;;;;25.35;37.67;102000.78;4975051;28;20027;-53
2022/10/12 01:43:42;;;;;;;1.95;0.90;;;;;;;25.35;37.60;102000.78;4974263;28;20511;-54
2022/10/12 01:46:14;;;;;;;0.77;0.60;;;;;;;25.34;37.57;101996.38;4975578;28;20037;-53
2022/10/12 01:48:45;;;;;;;2.22;0.57;;;;;;;25.35;37.27;101998.16;4975224;28;20030;-54
2022/10/12 01:51:17;;;;;;;1.33;0.60;;;;;;;25.33;37.56;101998.09;4973833;28;20027;-54
2022/10/12 01:53:58;;;;;;;1.33;0.80;;;;;;;25.30;37.57;101997.16;4975378;28;20053;-54
2022/10/12 01:56:40;;;;;;;1.45;0.60;;;;;;;25.29;37.50;102000.63;4975441;28;20051;-54
2022/10/12 01:59:18;;;;;;;1.55;0.65;;;;;;;25.31;37.65;102001.56;4975027;28;20485;-54
2022/10/12 02:02:10;;;;;;;1.63;0.60;;;;;;;25.28;37.55;101988.34;4975425;28;20113;-54
2022/10/12 02:04:50;;;;;;;1.80;0.80;;;;;;;25.30;37.57;101989.28;4973674;28;20057;-55
2022/10/12 02:07:26;;;;;;;1.30;0.65;;;;;;;25.27;37.53;101989.19;4975117;28;20030;-54
2022/10/12 02:09:55;;;;;;;1.15;0.80;;;;;;;25.34;37.37;101992.00;4973109;28;20465;-55
2022/10/12 02:12:25;;;;;;;1.60;0.75;;;;;;;25.37;37.31;101991.22;4973427;28;20560;-54
2022/10/12 02:14:57;;;;;;;2.00;0.80;;;;;;;25.37;37.26;101979.81;4975137;28;20031;-54
2022/10/12 02:17:26;;;;;;;3.33;1.08;;;;;;;25.29;37.59;101977.91;4973338;28;20027;-54
2022/10/12 02:19:58;;;;;;;1.40;0.75;;;;;;;25.31;37.30;101986.72;4974840;28;20050;-54
2022/10/12 02:22:32;;;;;;;0.85;0.60;;;;;;;25.25;37.60;101976.03;4974807;28;20033;-55
2022/10/12 02:25:00;;;;;;;;;;;;;;;25.31;37.46;101978.81;4973939;28;20037;-51
2022/10/12 02:27:28;;;;;;;1.20;0.75;;;;;;;25.29;37.50;101977.91;4974613;28;19922;-54
2022/10/12 02:29:57;;;;;;;0.65;0.47;;;;;;;25.23;37.60;101969.00;4973564;28;20580;-53
2022/10/12 02:32:34;;;;;;;1.92;0.70;;;;;;;25.26;37.54;101964.69;4974596;28;20092;-55
2022/10/12 02:35:08;;;;;;;1.60;0.50;;;;;;;25.27;37.37;101969.09;4973109;28;20425;-54
2022/10/12 02:37:59;;;;;;;0.98;0.50;;;;;;;25.26;37.40;101966.41;4974624;28;20413;-55
2022/10/12 02:40:41;;;;;;;3.30;0.95;;;;;;;25.28;37.33;101967.34;4971824;28;20105;-55
2022/10/12 02:43:19;;;;;;;1.50;0.65;;;;;;;25.28;37.44;101968.25;4973217;28;20058;-54
2022/10/12 02:45:48;;;;;;;1.23;0.80;;;;;;;25.23;37.40;101961.13;4973238;28;20027;-55
2022/10/12 02:48:20;;;;;;;1.20;0.80;;;;;;;25.25;37.16;101973.41;4974356;28;20047;-52
2022/10/12 02:50:50;;;;;;;0.90;0.70;;;;;;;25.25;37.55;101964.63;4972838;28;20496;-54
2022/10/12 02:53:18;;;;;;;2.47;0.60;;;;;;;25.21;37.75;101963.69;4974494;28;20431;-52
2022/10/12 02:56:01;;;;;;;1.98;0.95;;;;;;;25.22;37.39;101967.22;4974231;28;20031;-53
2022/10/12 02:58:30;;;;;;;1.92;1.05;;;;;;;25.22;37.42;101956.72;4974853;28;20058;-54
2022/10/12 03:00:57;;;;;;;1.30;0.80;;;;;;;25.26;37.60;101962.06;4974286;28;20034;-55
2022/10/12 03:03:26;;;;;;;4.22;0.63;;;;;;;25.21;37.53;101957.56;4981546;28;20468;-55
2022/10/12 03:05:54;;;;;;;1.50;0.65;;;;;;;25.19;37.41;101954.88;4993798;28;20614;-54
2022/10/12 03:08:22;;;;;;;3.30;0.57;;;;;;;25.22;37.46;101964.59;4993645;28;20464;-55
2022/10/12 03:10:51;;;;;;;1.05;0.60;;;;;;;25.25;37.25;101962.91;4993482;28;20023;-54
2022/10/12 03:13:19;;;;;;;1.10;0.63;;;;;;;25.35;37.15;101969.28;4993888;28;20177;-55
2022/10/12 03:15:48;;;;;;;2.22;0.90;;;;;;;25.22;37.26;101960.22;4993416;28;20031;-53
2022/10/12 03:18:16;;;;;;;0.57;0.47;;;;;;;25.21;37.39;101958.44;4993497;28;20022;-54
2022/10/12 03:20:48;;;;;;;1.38;0.60;;;;;;;25.26;37.22;101959.44;4993283;28;20485;-54
2022/10/12 03:23:17;;;;;;;1.20;0.70;;;;;;;25.16;37.49;101955.72;4996917;28;20054;-55
2022/10/12 03:25:45;;;;;;;1.60;0.60;;;;;;;25.18;37.73;101959.25;4997335;28;20030;-54
2022/10/12 03:28:14;;;;;;;1.52;0.57;;;;;;;25.22;37.50;101952.34;4997368;28;20035;-55
2022/10/12 03:30:43;;;;;;;0.55;0.45;;;;;;;25.20;37.35;101956.66;4979908;28;20030;-54
2022/10/12 03:33:12;;;;;;;1.25;0.60;;;;;;;25.24;37.49;101966.38;4979843;28;20027;-55
2022/10/12 03:35:43;;;;;;;1.77;0.70;;;;;;;25.15;37.27;101966.19;4997208;28;20106;-55
2022/10/12 03:38:11;;;;;;;1.13;0.55;;;;;;;25.22;37.26;101957.59;4997103;28;20036;-55
2022/10/12 03:40:40;;;;;;;3.33;0.68;;;;;;;25.18;37.35;101969.75;4997120;28;20100;-54
2022/10/12 03:43:09;;;;;;;0.93;0.60;;;;;;;25.20;37.44;101969.78;4996927;28;20030;-54
2022/10/12 03:45:37;;;;;;;0.95;0.70;;;;;;;25.20;37.41;101967.16;4997253;28;20461;-55
2022/10/12 03:48:06;;;;;;;1.05;0.63;;;;;;;25.17;37.65;101967.09;4997089;28;20057;-55
2022/10/12 03:50:36;;;;;;;2.30;0.85;;;;;;;25.14;37.55;101962.66;4996958;28;20070;-54
2022/10/12 03:53:05;;;;;;;1.08;0.70;;;;;;;25.14;37.44;101956.53;4996943;28;20026;-55
2022/10/12 03:55:34;;;;;;;0.80;0.45;;;;;;;25.15;37.63;101953.94;4996806;28;20058;-54
2022/10/12 03:58:02;;;;;;;1.30;0.68;;;;;;;25.15;37.15;101960.94;4996857;28;20030;-54
2022/10/12 04:00:31;;;;;;;0.70;0.55;;;;;;;25.20;37.40;101955.78;4996613;28;20033;-53
2022/10/12 04:03:00;;;;;;;1.35;0.60;;;;;;;25.18;37.27;101954.00;4996248;28;20047;-54
2022/10/12 04:05:30;;;;;;;1.52;0.68;;;;;;;25.17;37.29;101949.59;4996932;28;20464;-54
2022/10/12 04:07:58;;;;;;;2.03;0.50;;;;;;;25.14;37.33;101948.66;4996321;28;20035;-54
2022/10/12 04:10:27;;;;;;;1.42;0.80;;;;;;;25.18;37.36;101963.59;4996680;28;20385;-56
2022/10/12 04:12:56;;;;;;;0.85;0.52;;;;;;;25.18;37.50;101958.34;4996988;28;20022;-55
2022/10/12 04:15:24;;;;;;;2.40;0.60;;;;;;;25.11;37.59;101977.47;4979326;28;20057;-54
2022/10/12 04:17:53;;;;;;;1.67;0.73;;;;;;;25.16;37.12;101986.31;4996761;28;20049;-55
2022/10/12 04:20:21;;;;;;;1.65;0.50;;;;;;;25.11;37.38;101982.72;4996271;28;20022;-52
2022/10/12 04:22:50;;;;;;;1.25;0.70;;;;;;;25.14;37.12;101980.16;4996340;28;20040;-55
2022/10/12 04:25:18;;;;;;;1.05;0.60;;;;;;;25.14;37.32;101977.53;4996365;28;20038;-55
2022/10/12 04:27:47;;;;;;;0.60;0.40;;;;;;;25.16;37.07;101981.06;4996528;28;20117;-55
2022/10/12 04:30:15;;;;;;;2.50;0.50;;;;;;;25.22;37.39;101981.22;4996216;28;20027;-55
2022/10/12 04:32:44;;;;;;;1.40;0.55;;;;;;;25.17;37.12;101985.47;4995880;28;20464;-53
2022/10/12 04:35:13;;;;;;;1.80;0.80;;;;;;;25.15;37.54;101993.31;4995146;28;20092;-55
2022/10/12 04:37:41;;;;;;;2.10;0.60;;;;;;;25.15;37.23;101979.31;4996131;28;20077;-55
2022/10/12 04:40:10;;;;;;;0.75;0.60;;;;;;;25.22;37.44;101978.59;4995853;28;20026;-54
2022/10/12 04:42:38;;;;;;;1.35;0.50;;;;;;;25.13;37.53;101974.00;4995854;28;20027;-52
2022/10/12 04:45:07;;;;;;;1.80;1.00;;;;;;;25.16;37.15;101971.47;4996170;28;20410;-54
2022/10/12 04:47:36;;;;;;;0.70;0.57;;;;;;;25.21;37.07;101971.56;4995709;28;20027;-55
2022/10/12 04:50:03;;;;;;;1.00;0.50;;;;;;;25.18;37.05;101975.03;4978608;28;20062;-54
2022/10/12 04:52:32;;;;;;;0.50;0.50;;;;;;;25.14;37.15;101983.66;4995717;28;20472;-52
2022/10/12 04:55:00;;;;;;;0.65;0.57;;;;;;;25.10;37.22;101980.94;4995915;28;20026;-51
2022/10/12 04:57:29;;;;;;;1.15;0.63;;;;;;;25.08;37.26;101987.88;4995865;28;20033;-54
2022/10/12 04:59:57;;;;;;;1.95;0.60;;;;;;;25.08;37.25;102001.00;4995585;28;20510;-54
2022/10/12 05:02:26;;;;;;;1.23;0.75;;;;;;;25.08;37.44;101994.00;4995744;28;20026;-55
2022/10/12 05:04:54;;;;;;;0.70;0.50;;;;;;;25.07;37.28;101994.84;4995350;28;20054;-55
2022/10/12 05:07:23;;;;;;;0.80;0.52;;;;;;;25.01;37.37;101986.84;4995763;28;20023;-52
2022/10/12 05:09:52;;;;;;;1.30;0.40;;;;;;;25.05;37.48;102009.72;4995235;28;20026;-53
2022/10/12 05:12:21;;;;;;;2.60;0.93;;;;;;;25.08;37.07;102004.50;4995126;28;20026;-54
2022/10/12 05:14:49;;;;;;;1.10;0.50;;;;;;;25.12;37.38;102009.00;4995141;28;20034;-54
2022/10/12 05:17:18;;;;;;;1.08;0.63;;;;;;;25.05;37.46;102014.97;4995982;28;20064;-55
2022/10/12 05:19:46;;;;;;;2.83;0.80;;;;;;;25.13;37.15;102020.41;4995223;28;20101;-54
2022/10/12 05:22:15;;;;;;;2.25;0.90;;;;;;;25.10;37.27;102015.06;4995296;28;20435;-50
2022/10/12 05:24:43;;;;;;;1.90;1.00;;;;;;;25.13;37.31;102013.41;4994942;28;20354;-53
2022/10/12 05:27:12;;;;;;;4.97;1.00;;;;;;;25.10;37.38;102009.81;4995146;28;20026;-53
2022/10/12 05:29:40;;;;;;;4.47;1.00;;;;;;;25.04;37.37;101989.56;4995106;28;20042;-55
2022/10/12 05:32:08;;;;;;;2.25;0.70;;;;;;;25.11;37.34;101988.84;4994923;28;20101;-53
2022/10/12 05:34:37;;;;;;;2.17;0.90;;;;;;;25.08;36.99;101987.88;4994769;28;20038;-55
2022/10/12 05:37:05;;;;;;;3.50;0.65;;;;;;;25.09;37.24;101987.91;4994706;28;20057;-54
2022/10/12 05:39:35;;;;;;;1.33;0.70;;;;;;;25.02;37.21;101986.88;4995013;28;20388;-55
2022/10/12 05:42:04;;;;;;;2.72;1.00;;;;;;;25.03;37.58;101986.03;4994441;28;20029;-50
2022/10/12 05:44:32;;;;;;;2.92;0.70;;;;;;;25.02;37.54;101994.75;4994695;28;20025;-55
2022/10/12 05:47:01;;;;;;;2.67;0.80;;;;;;;25.04;37.32;101981.69;4994982;28;20018;-52
2022/10/12 05:49:29;;;;;;;1.90;0.80;;;;;;;25.04;37.32;101984.31;4994489;28;20084;-55
2022/10/12 05:51:58;;;;;;;2.05;0.63;;;;;;;25.11;37.09;101970.44;4994635;28;20034;-55
2022/10/12 05:54:28;;;;;;;2.53;0.80;;;;;;;25.12;37.00;101969.59;4994497;28;20137;-54
2022/10/12 05:56:56;;;;;;;0.82;0.52;;;;;;;25.13;37.10;101965.25;4994633;28;20061;-53
2022/10/12 05:59:23;;;;;;;4.65;0.98;;;;;;;25.17;37.16;101964.47;4994503;28;20093;-54
2022/10/12 06:01:50;;;;;;;4.13;0.98;;;;;;;25.17;37.31;101972.34;4994748;28;20057;-55
2022/10/12 06:04:18;;;;;;;1.98;1.05;;;;;;;25.16;37.38;101965.31;4994146;28;20074;-53
2022/10/12 06:06:47;;;;;;;2.65;0.80;;;;;;;25.16;37.48;101960.06;4994347;28;20038;-54
2022/10/12 06:09:15;;;;;;;2.22;0.50;;;;;;;25.19;37.17;101960.13;4994466;28;20034;-55
2022/10/12 06:11:44;;;;;;;4.03;0.90;;;;;;;25.20;37.19;101961.03;4994478;28;20476;-55
2022/10/12 06:14:12;;;;;;;5.10;1.00;;;;;;;25.19;37.27;101973.25;4995010;28;20121;-53
2022/10/12 06:16:40;;;;;;;1.05;0.60;;;;;;;25.21;37.14;101992.56;4994560;28;20019;-52
2022/10/12 06:19:11;;;;;;;3.38;0.60;;;;;;;25.17;37.48;101999.50;4994080;28;20452;-53
2022/10/12 06:21:40;;;;;;;1.65;0.60;;;;;;;25.22;37.47;101996.09;4977164;28;20121;-55
2022/10/12 06:24:09;;;;;;;2.17;0.90;;;;;;;25.18;37.27;101988.16;4993946;28;20118;-53
2022/10/12 06:26:37;;;;;;;2.78;0.80;;;;;;;25.16;37.41;101988.94;4993619;28;20129;-55
2022/10/12 06:29:06;;;;;;;1.92;0.63;;;;;;;25.22;37.62;101994.34;4992989;28;20038;-53
2022/10/12 06:31:36;;;;;;;1.48;0.70;;;;;;;25.20;37.39;101996.03;4994178;28;20022;-54
2022/10/12 06:34:05;;;;;;;3.30;0.80;;;;;;;25.24;37.18;102010.13;4993609;28;20041;-54
2022/10/12 06:36:33;;;;;;;1.73;0.70;;;;;;;25.20;37.39;102011.81;4994172;28;20477;-53
2022/10/12 06:39:02;;;;;;;2.78;0.98;;;;;;;25.18;37.46;102019.66;4994010;28;20033;-55
2022/10/12 06:41:30;;;;;;;2.08;0.73;;;;;;;25.11;37.25;102012.47;4993731;28;20425;-54
2022/10/12 06:44:00;;;;;;;3.42;0.80;;;;;;;25.20;37.52;102030.19;4993829;28;20104;-53
2022/10/12 06:46:28;;;;;;;3.35;0.70;;;;;;;25.18;37.35;102032.78;4993587;28;20022;-54
2022/10/12 06:48:57;;;;;;;1.77;0.60;;;;;;;25.21;37.47;102033.72;4993567;28;20101;-53
2022/10/12 06:51:25;;;;;;;6.70;0.70;;;;;;;25.21;37.41;102028.47;4994018;28;20022;-54
2022/10/12 06:53:58;;;;;;;2.28;0.77;;;;;;;25.13;37.34;102023.03;4993619;28;20022;-54
2022/10/12 06:56:26;;;;;;;2.60;0.85;;;;;;;25.14;37.52;102036.19;4993321;28;20384;-54
2022/10/12 06:58:55;;;;;;;2.70;1.23;;;;;;;25.14;37.54;102030.94;4993630;28;20435;-53
2022/10/12 07:01:24;;;;;;;1.13;0.60;;;;;;;25.16;37.68;102036.19;4993772;28;20125;-55
2022/10/12 07:03:51;;;;;;;1.10;0.60;;;;;;;25.18;37.59;102031.88;4993432;28;20129;-51
2022/10/12 07:06:19;;;;;;;5.28;1.13;;;;;;;25.17;37.61;102033.63;4993474;28;20033;-54
2022/10/12 07:08:49;;;;;;;2.70;0.95;;;;;;;25.12;37.64;102031.75;4993595;28;20027;-53
2022/10/12 07:11:17;;;;;;;3.70;1.13;;;;;;;25.17;37.53;102043.22;4993467;28;20023;-54
2022/10/12 07:13:45;;;;;;;3.03;0.98;;;;;;;25.20;37.66;102045.06;4993409;28;20454;-55
2022/10/12 07:16:14;;;;;;;4.30;0.93;;;;;;;25.17;37.48;102041.50;4993415;28;20054;-54
2022/10/12 07:18:42;;;;;;;2.47;0.80;;;;;;;25.21;37.46;102054.72;4992939;28;20502;-55
2022/10/12 07:21:09;;;;;;;2.17;0.60;;;;;;;25.16;37.47;102049.34;4993440;28;20034;-54
2022/10/12 07:23:37;;;;;;;3.40;0.80;;;;;;;25.07;37.75;102038.59;4993215;28;20030;-55
2022/10/12 07:26:06;;;;;;;3.38;0.88;;;;;;;25.14;37.79;102048.44;4993234;28;20392;-51
2022/10/12 07:28:36;;;;;;;1.17;0.68;;;;;;;25.15;37.47;102055.47;4993431;28;20065;-54
2022/10/12 07:31:08;;;;;;;1.35;0.50;;;;;;;25.15;37.47;102061.59;4992543;28;20388;-53
2022/10/12 07:33:37;;;;;;;1.05;0.70;;;;;;;25.14;37.62;102065.06;4992313;28;20023;-55
2022/10/12 07:36:06;;;;;;;2.45;0.88;;;;;;;25.14;37.78;102065.06;4992678;28;20030;-55
2022/10/12 07:38:35;;;;;;;1.58;0.85;;;;;;;25.18;37.67;102068.63;4992804;28;20030;-54
2022/10/12 07:41:04;;;;;;;1.75;0.80;;;;;;;25.14;37.69;102072.06;4993553;28;20022;-55
2022/10/12 07:43:33;;;;;;;0.98;0.63;;;;;;;25.11;37.58;102077.22;4992838;28;20037;-55
2022/10/12 07:46:01;;;;;;;0.93;0.50;;;;;;;25.12;37.45;102072.00;4992934;28;20029;-54
2022/10/12 07:48:30;;;;;;;2.05;0.82;;;;;;;25.12;37.56;102079.00;4993225;28;20070;-54
2022/10/12 07:51:03;;;;;;;1.65;0.93;;;;;;;25.18;37.56;102085.31;4991669;28;20388;-52
2022/10/12 07:53:30;;;;;;;1.92;0.65;;;;;;;25.23;37.41;102085.41;4988446;28;20488;-52
2022/10/12 07:56:02;;;;;;;1.48;0.60;;;;;;;25.29;37.37;102079.41;4992197;28;20037;-52
2022/10/12 07:58:29;;;;;;;1.67;0.95;;;;;;;25.25;37.32;102073.22;4992307;28;20109;-53
2022/10/12 08:01:03;;;;;;;0.68;0.50;;;;;;;25.32;37.28;102076.88;4989115;28;20476;-54
2022/10/12 08:03:31;;;;;;;3.50;0.73;;;;;;;25.26;37.42;102071.47;4990763;28;20400;-53
2022/10/12 08:05:58;;;;;;;2.20;0.70;;;;;;;25.20;37.71;102066.94;4992498;28;20304;-53
2022/10/12 08:08:25;;;;;;;1.10;0.73;;;;;;;25.22;37.40;102074.88;4976712;28;20038;-54
2022/10/12 08:10:53;;;;;;;2.80;0.80;;;;;;;25.26;37.34;102076.72;4995829;28;20034;-52
2022/10/12 08:13:22;;;;;;;4.40;0.75;;;;;;;25.31;37.41;102073.38;4995545;28;20112;-56
2022/10/12 08:15:50;;;;;;;1.30;0.70;;;;;;;25.30;37.59;102070.69;4996043;28;20054;-53
2022/10/12 08:18:19;;;;;;;1.23;0.80;;;;;;;25.28;37.43;102065.41;4995651;28;20603;-54
2022/10/12 08:20:47;;;;;;;0.80;0.60;;;;;;;25.28;37.75;102070.66;4995665;28;20030;-54
2022/10/12 08:23:14;;;;;;;4.10;0.95;;;;;;;25.27;37.61;102076.78;4995393;28;20023;-55
2022/10/12 08:25:43;;;;;;;2.35;0.80;;;;;;;25.28;37.55;102072.38;4995737;28;20032;-54
2022/10/12 08:28:11;;;;;;;2.13;0.80;;;;;;;25.35;37.56;102076.97;4995124;28;20088;-53
2022/10/12 08:30:40;;;;;;;2.15;0.88;;;;;;;25.47;37.47;102071.16;4995366;28;20480;-54
2022/10/12 08:33:08;;;;;;;3.90;0.68;;;;;;;25.45;37.31;102057.97;4978030;28;20048;-54
2022/10/12 08:35:39;;;;;;;1.95;0.93;;;;;;;25.40;37.42;102051.66;4995474;28;20030;-51
2022/10/12 08:38:08;;;;;;;2.60;0.75;;;;;;;25.43;37.34;102049.16;4995502;28;20056;-55
2022/10/12 08:40:42;;;;;;;2.83;0.50;;;;;;;25.42;37.74;102046.50;4991821;28;20038;-56
2022/10/12 08:43:41;;;;;;;1.75;0.70;;;;;;;25.43;37.83;102043.03;4994977;28;20034;-56
2022/10/12 08:46:10;;;;;;;1.35;0.70;;;;;;;25.45;37.65;102041.34;4994977;28;20468;-54
2022/10/12 08:48:44;;;;;;;1.25;0.75;;;;;;;25.52;37.39;102043.22;4994528;28;20498;-55
2022/10/12 08:51:16;;;;;;;1.67;0.60;;;;;;;25.50;37.55;102033.56;4978199;28;20026;-53
2022/10/12 08:53:51;;;;;;;2.58;0.68;;;;;;;25.55;37.49;102043.31;4981508;28;20057;-55
2022/10/12 08:56:20;;;;;;;3.45;0.70;;;;;;;25.57;37.79;102038.97;4995084;28;20110;-56
2022/10/12 08:58:49;;;;;;;2.67;0.95;;;;;;;25.57;37.60;102044.25;4994479;28;20042;-55
2022/10/12 09:01:29;;;;;;;4.10;1.20;;;;;;;25.51;37.77;102037.97;4994944;28;20023;-53
2022/10/12 09:04:17;;;;;;;4.80;1.20;;;;;;;25.54;37.74;102033.66;4977442;28;20089;-56
2022/10/12 09:07:07;;;;;;;3.72;1.25;;;;;;;25.59;37.64;102031.13;4971048;28;20034;-53
2022/10/12 09:09:58;;;;;;;5.60;1.20;;;;;;;25.61;37.61;102027.69;4975210;28;20035;-54
2022/10/12 09:12:50;;;;;;;5.57;1.27;;;;;;;25.58;37.37;102031.97;4970749;28;20039;-52
2022/10/12 09:15:23;;;;;;;4.65;1.33;;;;;;;25.61;37.51;102034.69;4975026;28;20049;-51
2022/10/12 09:17:54;;;;;;;7.85;2.08;;;;;;;25.60;37.37;102043.41;4973914;28;20448;-53
2022/10/12 09:20:26;;;;;;;6.18;1.45;;;;;;;25.57;37.42;102056.47;4974449;28;20031;-54
2022/10/12 09:23:04;;;;;;;3.17;1.23;;;;;;;25.58;37.27;102063.50;4974871;28;20090;-54
2022/10/12 09:25:32;;;;;;;3.75;1.20;;;;;;;25.61;37.37;102072.38;4974787;28;20062;-50
2022/10/12 09:28:16;;;;;;;7.78;1.63;;;;;;;25.57;37.54;102078.41;4974794;28;20038;-53
2022/10/12 09:30:55;;;;;;;3.78;1.25;;;;;;;25.61;37.58;102081.97;4974088;28;20110;-53
2022/10/12 09:33:27;;;;;;;5.80;1.48;;;;;;;25.52;37.41;102053.75;4973863;28;20397;-53
2022/10/12 09:35:56;;;;;;;6.18;1.83;;;;;;;25.66;37.53;102079.44;4973916;28;20484;-52
2022/10/12 09:38:25;;;;;;;8.30;1.38;;;;;;;25.68;37.75;102083.91;4974781;28;20477;-51
2022/10/12 09:40:53;;;;;;;4.68;1.17;;;;;;;25.68;37.56;102094.44;4973843;28;20031;-54
2022/10/12 09:43:22;;;;;;;7.45;1.75;;;;;;;25.62;37.58;102103.06;4974249;28;20027;-54
2022/10/12 09:45:51;;;;;;;4.85;1.70;;;;;;;25.55;37.42;102089.72;4974774;28;20027;-54
2022/10/12 09:48:21;;;;;;;4.20;1.65;;;;;;;25.67;37.66;102118.03;4974451;28;20050;-53
2022/10/12 09:50:55;;;;;;;5.35;1.65;;;;;;;25.69;37.53;102124.22;4974721;28;20485;-52
2022/10/12 09:53:27;;;;;;;7.88;1.20;;;;;;;25.75;37.61;102135.75;4974312;28;20070;-51
2022/10/12 09:55:58;;;;;;;5.43;1.40;;;;;;;25.71;37.50;102133.03;4971018;28;20033;-50
2022/10/12 09:58:28;;;;;;;5.30;1.67;;;;;;;25.72;37.45;102137.44;4974170;28;20026;-51
2022/10/12 10:01:22;;;;;;;4.63;1.17;;;;;;;25.73;37.65;102139.19;4974089;28;20035;-54
2022/10/12 10:04:07;;;;;;;3.85;1.13;;;;;;;25.72;37.45;102135.69;4982294;28;20042;-53
2022/10/12 10:06:36;;;;;;;17.75;4.55;;;;;;;25.71;37.48;102136.56;4993442;28;20033;-55
2022/10/12 10:09:05;;;;;;;23.40;6.18;;;;;;;25.69;37.71;102125.13;4993966;28;20391;-54
2022/10/12 10:11:34;;;;;;;31.48;9.68;;;;;;;25.69;37.81;102125.13;4976005;28;20475;-52
2022/10/12 10:14:02;;;;;;;35.85;8.18;;;;;;;25.74;37.50;102122.59;4978980;28;20033;-55
2022/10/12 10:16:31;;;;;;;25.70;7.40;;;;;;;25.75;37.41;102119.09;4993623;28;20030;-55
2022/10/12 10:19:00;;;;;;;27.77;6.75;;;;;;;25.72;37.56;102108.50;4993402;28;20045;-52
2022/10/12 10:21:30;;;;;;;40.10;10.23;;;;;;;25.73;37.49;102116.44;4976441;28;20073;-54
2022/10/12 10:24:02;;;;;;;33.13;8.82;;;;;;;25.74;37.39;102101.56;4993015;28;20487;-53
2022/10/12 10:26:50;;;;;;;34.00;9.02;;;;;;;25.71;37.58;102094.50;4993474;28;20044;-52
2022/10/12 10:29:22;;;;;;;32.15;9.02;;;;;;;25.71;37.19;102094.50;4993120;28;20507;-53
2022/10/12 10:31:52;;;;;;;28.65;8.30;;;;;;;25.75;37.28;102098.09;4992630;28;20455;-49
2022/10/12 10:34:22;;;;;;;25.50;7.22;;;;;;;25.75;37.11;102100.72;4975274;28;20053;-53
2022/10/12 10:36:53;;;;;;;25.63;6.65;;;;;;;25.70;36.95;102119.00;4976115;28;20096;-51
2022/10/12 10:39:50;;;;;;;21.63;6.72;;;;;;;25.69;37.44;102111.06;4975742;28;20030;-52
2022/10/12 10:42:27;;;;;;;16.77;6.13;;;;;;;25.76;37.43;102110.38;4971874;28;20126;-54
2022/10/12 10:45:01;;;;;;;19.73;5.63;;;;;;;25.77;37.17;102109.53;4992396;28;20033;-52
2022/10/12 10:47:31;;;;;;;19.70;5.07;;;;;;;25.81;37.26;102107.84;4980014;28;20038;-54
2022/10/12 10:50:01;;;;;;;16.15;4.82;;;;;;;25.82;37.17;102107.88;4975110;28;20480;-53
2022/10/12 10:52:33;;;;;;;16.90;5.07;;;;;;;25.80;37.35;102112.22;4975921;28;20111;-54
2022/10/12 10:55:10;;;;;;;16.05;5.28;;;;;;;25.78;37.45;102116.56;4992559;28;20057;-55
2022/10/12 10:57:44;;;;;;;13.98;4.47;;;;;;;25.79;37.47;102108.69;4992914;28;20117;-53
2022/10/12 11:00:16;;;;;;;12.82;3.95;;;;;;;25.79;37.29;102100.81;4992741;28;20397;-53
2022/10/12 11:03:04;;;;;;;12.32;3.88;;;;;;;25.76;37.49;102090.22;4992192;28;20026;-54
2022/10/12 11:05:45;;;;;;;12.48;4.07;;;;;;;25.81;37.36;102092.06;4953902;28;20038;-54
2022/10/12 11:08:22;;;;;;;8.10;3.03;;;;;;;25.83;37.39;102086.00;4992897;28;20026;-52
2022/10/12 11:11:03;;;;;;;8.50;3.15;;;;;;;25.81;37.30;102084.19;4992770;28;20080;-55
2022/10/12 11:13:36;;;;;;;13.35;3.20;;;;;;;25.81;37.34;102084.19;4992637;28;20520;-52
2022/10/12 11:16:27;;;;;;;8.25;3.33;;;;;;;25.85;37.24;102086.03;4993038;28;20034;-52
2022/10/12 11:18:59;;;;;;;12.05;2.60;;;;;;;25.97;37.15;102088.06;4989229;28;20042;-54
2022/10/12 11:21:35;;;;;;;6.38;2.10;;;;;;;25.98;36.97;102080.19;4992910;28;20121;-50
2022/10/12 11:24:25;;;;;;;6.53;2.35;;;;;;;25.89;37.21;102058.97;4977911;28;20468;-54
2022/10/12 11:26:56;;;;;;;4.90;1.80;;;;;;;25.99;36.87;102076.72;4976947;28;20492;-54
2022/10/12 11:29:24;;;;;;;6.97;1.98;;;;;;;26.02;37.21;102070.63;4992557;28;20500;-54
2022/10/12 11:32:02;;;;;;;5.72;2.17;;;;;;;26.00;36.84;102059.19;4991736;28;20026;-53
2022/10/12 11:34:32;;;;;;;10.23;1.65;;;;;;;25.97;37.03;102049.50;4992063;28;20034;-54
2022/10/12 11:37:02;;;;;;;5.85;1.55;;;;;;;26.04;36.90;102042.63;4978722;28;20022;-50
2022/10/12 11:39:35;;;;;;;4.15;1.88;;;;;;;25.99;37.30;102042.53;4989197;28;20473;-54
2022/10/12 11:42:05;;;;;;;6.47;1.77;;;;;;;25.98;37.21;102042.53;4974991;28;20030;-53
2022/10/12 11:44:43;;;;;;;4.57;1.08;;;;;;;26.07;37.08;102054.09;4978113;28;20033;-54